AAL1549 KLAX-KSAN
Flight info
| Callsign | AAL1549 |
|---|---|
| Flight time | N/A |
| Altitude | 13000 |
| Route | LAXX1 MZB |
| Aircraft | A20N/M-SDE2E3FGHIRWXY/LB1 |
Departure
| Time | 2026-04-22 03:29 |
|---|---|
| Airport | Los Angeles International Airport (KLAX) |
Arrival
| Time | N/A |
|---|---|
| Airport | San Diego International Airport (KSAN) |
| Time | Latitude | Longitude | Altitude | Speed | Heading |
|---|---|---|---|---|---|
| 2026-04-22 03:14 | 33.94034 | -118.39760 | 125 ft | 0 kts | 85° |
| 2026-04-22 03:18 | 33.94033 | -118.39771 | 125 ft | 3 kts | 85° |
| 2026-04-22 03:18 | 33.94032 | -118.39787 | 122 ft | 2 kts | 85° |
| 2026-04-22 03:19 | 33.94039 | -118.39828 | 123 ft | 2 kts | 167° |
| 2026-04-22 03:21 | 33.94033 | -118.39826 | 120 ft | 3 kts | 167° |
| 2026-04-22 03:22 | 33.93992 | -118.39816 | 122 ft | 9 kts | 169° |
| 2026-04-22 03:22 | 33.93925 | -118.39772 | 123 ft | 14 kts | 135° |
| 2026-04-22 03:22 | 33.93913 | -118.39648 | 124 ft | 18 kts | 85° |
| 2026-04-22 03:22 | 33.93931 | -118.39472 | 125 ft | 24 kts | 83° |
| 2026-04-22 03:23 | 33.93956 | -118.39249 | 121 ft | 29 kts | 82° |
| 2026-04-22 03:23 | 33.93982 | -118.38989 | 125 ft | 34 kts | 83° |
| 2026-04-22 03:23 | 33.94009 | -118.38694 | 124 ft | 37 kts | 77° |
| 2026-04-22 03:23 | 33.94044 | -118.38372 | 124 ft | 40 kts | 83° |
| 2026-04-22 03:24 | 33.94075 | -118.38076 | 125 ft | 24 kts | 83° |
| 2026-04-22 03:24 | 33.94033 | -118.38002 | 123 ft | 11 kts | 167° |
| 2026-04-22 03:24 | 33.93984 | -118.38051 | 123 ft | 10 kts | 254° |
| 2026-04-22 03:24 | 33.93976 | -118.38197 | 125 ft | 33 kts | 278° |
| 2026-04-22 03:25 | 33.94026 | -118.38374 | 121 ft | 0 kts | 283° |
| 2026-04-22 03:25 | 33.94033 | -118.38372 | 123 ft | 1 kts | 9° |
| 2026-04-22 03:25 | 33.94042 | -118.38353 | 124 ft | 4 kts | 59° |
| 2026-04-22 03:25 | 33.94052 | -118.38309 | 124 ft | 7 kts | 80° |
| 2026-04-22 03:26 | 33.94062 | -118.38228 | 125 ft | 14 kts | 85° |
| 2026-04-22 03:26 | 33.94077 | -118.38065 | 125 ft | 24 kts | 83° |
| 2026-04-22 03:26 | 33.94010 | -118.38008 | 122 ft | 12 kts | 200° |
| 2026-04-22 03:26 | 33.93986 | -118.38066 | 124 ft | 14 kts | 262° |
| 2026-04-22 03:27 | 33.93990 | -118.38193 | 121 ft | 36 kts | 289° |
| 2026-04-22 03:27 | 33.94008 | -118.38240 | 124 ft | 43 kts | 298° |
| 2026-04-22 03:27 | 33.94035 | -118.38283 | 121 ft | 20 kts | 324° |
| 2026-04-22 03:28 | 33.94046 | -118.38287 | 124 ft | 0 kts | 356° |
| 2026-04-22 03:28 | 33.94052 | -118.38229 | 121 ft | 16 kts | 82° |
| 2026-04-22 03:28 | 33.94072 | -118.38074 | 125 ft | 20 kts | 84° |
| 2026-04-22 03:28 | 33.93997 | -118.38029 | 122 ft | 15 kts | 227° |
| 2026-04-22 03:29 | 33.93964 | -118.38227 | 123 ft | 56 kts | 263° |
| 2026-04-22 03:29 | 33.93883 | -118.39015 | 122 ft | 130 kts | 263° |
| 2026-04-22 03:29 | 33.93758 | -118.40242 | 536 ft | 153 kts | 262° |
| 2026-04-22 03:29 | 33.93636 | -118.41545 | 1331 ft | 161 kts | 264° |
| 2026-04-22 03:30 | 33.93527 | -118.42892 | 2127 ft | 163 kts | 267° |
| 2026-04-22 03:30 | 33.93487 | -118.44333 | 2678 ft | 181 kts | 269° |
| 2026-04-22 03:30 | 33.93407 | -118.45920 | 3174 ft | 200 kts | 257° |
| 2026-04-22 03:30 | 33.92773 | -118.47511 | 3603 ft | 223 kts | 238° |
| 2026-04-22 03:31 | 33.91817 | -118.49044 | 4313 ft | 232 kts | 232° |
| 2026-04-22 03:31 | 33.90689 | -118.50399 | 5149 ft | 238 kts | 213° |
| 2026-04-22 03:31 | 33.89065 | -118.51040 | 5706 ft | 261 kts | 185° |
| 2026-04-22 03:31 | 33.87241 | -118.50618 | 6470 ft | 275 kts | 156° |
| 2026-04-22 03:32 | 33.85722 | -118.49171 | 7325 ft | 286 kts | 131° |
| 2026-04-22 03:32 | 33.84591 | -118.47159 | 8143 ft | 294 kts | 124° |
| 2026-04-22 03:32 | 33.83508 | -118.45055 | 8986 ft | 299 kts | 127° |
| 2026-04-22 03:32 | 33.82318 | -118.42980 | 9836 ft | 302 kts | 133° |
| 2026-04-22 03:33 | 33.80758 | -118.41322 | 10404 ft | 304 kts | 156° |
| 2026-04-22 03:33 | 33.78727 | -118.40498 | 10656 ft | 315 kts | 179° |
| 2026-04-22 03:33 | 33.76509 | -118.40609 | 11090 ft | 324 kts | 191° |
| 2026-04-22 03:33 | 33.74251 | -118.40914 | 11872 ft | 328 kts | 191° |
| 2026-04-22 03:34 | 33.71964 | -118.41204 | 12341 ft | 333 kts | 191° |
| 2026-04-22 03:34 | 33.69660 | -118.41485 | 12482 ft | 333 kts | 191° |
| 2026-04-22 03:34 | 33.67353 | -118.41762 | 12612 ft | 333 kts | 191° |
| 2026-04-22 03:34 | 33.65014 | -118.41673 | 12735 ft | 345 kts | 173° |
| 2026-04-22 03:35 | 33.62765 | -118.40531 | 12853 ft | 362 kts | 152° |
| 2026-04-22 03:35 | 33.60905 | -118.38420 | 12964 ft | 375 kts | 133° |
| 2026-04-22 03:35 | 33.59459 | -118.35788 | 13003 ft | 380 kts | 125° |
| 2026-04-22 03:35 | 33.58147 | -118.33027 | 13001 ft | 380 kts | 124° |
| 2026-04-22 03:36 | 33.56829 | -118.30289 | 13006 ft | 379 kts | 125° |
| 2026-04-22 03:36 | 33.55465 | -118.27588 | 13005 ft | 378 kts | 127° |
| 2026-04-22 03:36 | 33.54068 | -118.24924 | 13004 ft | 378 kts | 127° |
| 2026-04-22 03:36 | 33.52647 | -118.22276 | 13003 ft | 377 kts | 128° |
| 2026-04-22 03:37 | 33.51239 | -118.19676 | 13005 ft | 377 kts | 128° |
| 2026-04-22 03:37 | 33.49808 | -118.17043 | 13002 ft | 376 kts | 128° |
| 2026-04-22 03:37 | 33.48377 | -118.14411 | 13000 ft | 376 kts | 128° |
| 2026-04-22 03:37 | 33.46950 | -118.11787 | 12998 ft | 376 kts | 128° |
| 2026-04-22 03:38 | 33.45522 | -118.09161 | 12995 ft | 376 kts | 128° |
| 2026-04-22 03:38 | 33.44095 | -118.06538 | 12988 ft | 376 kts | 128° |
| 2026-04-22 03:38 | 33.42667 | -118.03913 | 12991 ft | 375 kts | 128° |
| 2026-04-22 03:38 | 33.41243 | -118.01298 | 12989 ft | 375 kts | 128° |
| 2026-04-22 03:39 | 33.39812 | -117.98672 | 12991 ft | 375 kts | 128° |
| 2026-04-22 03:39 | 33.38386 | -117.96057 | 12994 ft | 375 kts | 128° |
| 2026-04-22 03:39 | 33.36979 | -117.93478 | 12992 ft | 375 kts | 128° |
| 2026-04-22 03:39 | 33.35549 | -117.90859 | 12991 ft | 375 kts | 128° |
| 2026-04-22 03:40 | 33.34122 | -117.88248 | 12990 ft | 375 kts | 128° |
| 2026-04-22 03:40 | 33.32693 | -117.85634 | 12994 ft | 375 kts | 128° |
| 2026-04-22 03:40 | 33.31265 | -117.83024 | 12992 ft | 375 kts | 128° |
| 2026-04-22 03:40 | 33.29841 | -117.80422 | 12994 ft | 375 kts | 128° |
| 2026-04-22 03:41 | 33.28413 | -117.77815 | 12990 ft | 375 kts | 128° |
| 2026-04-22 03:41 | 33.26983 | -117.75208 | 12996 ft | 374 kts | 128° |
| 2026-04-22 03:41 | 33.25555 | -117.72604 | 12994 ft | 375 kts | 128° |
| 2026-04-22 03:41 | 33.24127 | -117.70002 | 12995 ft | 375 kts | 128° |
| 2026-04-22 03:42 | 33.22697 | -117.67399 | 12997 ft | 375 kts | 128° |
| 2026-04-22 03:42 | 33.21267 | -117.64799 | 12990 ft | 375 kts | 128° |
| 2026-04-22 03:42 | 33.19838 | -117.62202 | 12992 ft | 375 kts | 128° |
| 2026-04-22 03:42 | 33.18405 | -117.59598 | 12992 ft | 375 kts | 128° |
| 2026-04-22 03:43 | 33.16972 | -117.56998 | 12993 ft | 375 kts | 128° |
| 2026-04-22 03:43 | 33.15535 | -117.54390 | 12990 ft | 375 kts | 128° |
| 2026-04-22 03:43 | 33.14100 | -117.51789 | 12991 ft | 375 kts | 128° |
| 2026-04-22 03:43 | 33.12664 | -117.49187 | 12987 ft | 375 kts | 128° |
| 2026-04-22 03:44 | 33.11232 | -117.46594 | 12842 ft | 373 kts | 128° |
| 2026-04-22 03:44 | 33.09806 | -117.44013 | 12483 ft | 370 kts | 128° |
| 2026-04-22 03:44 | 33.08221 | -117.41650 | 12009 ft | 361 kts | 140° |
| 2026-04-22 03:44 | 33.06460 | -117.39582 | 11541 ft | 358 kts | 141° |
| 2026-04-22 03:45 | 33.04674 | -117.37511 | 11067 ft | 356 kts | 141° |
| 2026-04-22 03:45 | 33.02904 | -117.35462 | 10612 ft | 353 kts | 141° |
| 2026-04-22 03:45 | 33.01162 | -117.33440 | 10363 ft | 344 kts | 141° |
| 2026-04-22 03:45 | 32.99484 | -117.31485 | 10235 ft | 330 kts | 141° |
| 2026-04-22 03:46 | 32.97875 | -117.29608 | 10124 ft | 317 kts | 141° |
| 2026-04-22 03:46 | 32.96330 | -117.27808 | 9977 ft | 306 kts | 141° |
| 2026-04-22 03:46 | 32.95411 | -117.26741 | 9775 ft | 303 kts | 141° |
| 2026-04-22 03:59 | 32.95037 | -117.26306 | 9707 ft | 302 kts | 141° |
| 2026-04-22 03:59 | 32.93537 | -117.24569 | 9351 ft | 300 kts | 141° |
| 2026-04-22 03:59 | 32.92065 | -117.22865 | 8965 ft | 298 kts | 141° |